Time;durP1;ratioP1;P1;durP2;ratioP2;P2;SDS_P1;SDS_P2;PMS_P1;PMS_P2;Temp;Humidity;BMP_temperature;BMP_pressure;BME280_temperature;BME280_humidity;BME280_pressure;Samples;Min_cycle;Max_cycle;Signal;HPM_P1;HPM_P2
2022/04/20 00:02:09;;;;;;;12.23;9.93;;;;;;;9.71;nan;101593.78;5052165;28;20029;-50
2022/04/20 00:04:35;;;;;;;13.32;10.25;;;;;;;9.68;nan;101599.09;5044573;28;20071;-52
2022/04/20 00:07:00;;;;;;;12.07;8.85;;;;;;;9.23;nan;101521.88;5043904;28;20060;-52
2022/04/20 00:09:25;;;;;;;14.43;10.10;;;;;;;9.56;nan;101585.28;5037384;28;20037;-49
2022/04/20 00:11:51;;;;;;;12.15;9.48;;;;;;;9.52;nan;101593.22;5050390;28;20442;-48
2022/04/20 00:14:16;;;;;;;11.63;9.38;;;;;;;9.19;nan;101535.97;5052165;28;20041;-49
2022/04/20 00:16:41;;;;;;;14.40;9.30;;;;;;;9.39;nan;101581.19;5043214;28;20065;-49
2022/04/20 00:19:07;;;;;;;11.55;9.32;;;;;;;9.39;nan;101587.31;5044180;28;20037;-49
2022/04/20 00:21:32;;;;;;;12.32;9.07;;;;;;;8.99;nan;101526.63;5036142;28;20043;-53
2022/04/20 00:23:57;;;;;;;13.38;9.02;;;;;;;9.32;nan;101595.28;5047177;28;20117;-47
2022/04/20 00:26:23;;;;;;;11.65;8.93;;;;;;;9.28;nan;101586.56;5038234;28;20190;-50
2022/04/20 00:28:48;;;;;;;10.48;9.38;;;;;;;8.93;nan;101539.81;5042144;28;20052;-48
2022/04/20 00:31:13;;;;;;;12.07;8.93;;;;;;;9.21;nan;101603.34;5045118;28;20048;-49
2022/04/20 00:33:39;;;;;;;14.50;9.68;;;;;;;9.18;nan;101589.38;5033861;28;20033;-49
2022/04/20 00:36:05;;;;;;;11.27;8.52;;;;;;;9.18;nan;101602.50;5048064;28;20029;-46
2022/04/20 00:38:30;;;;;;;13.18;9.05;;;;;;;8.84;nan;101537.34;5054172;28;20024;-50
2022/04/20 00:40:56;;;;;;;14.13;9.98;;;;;;;8.84;nan;101539.13;5039904;28;20405;-48
2022/04/20 00:43:22;;;;;;;11.00;8.35;;;;;;;8.73;nan;101525.25;5030840;28;20029;-51
2022/04/20 00:45:49;;;;;;;10.55;7.97;;;;;;;8.75;nan;101534.88;5030612;28;20072;-47
2022/04/20 00:48:15;;;;;;;10.48;8.95;;;;;;;9.11;nan;101601.72;5031904;28;20040;-47
2022/04/20 00:50:42;;;;;;;10.05;8.25;;;;;;;8.69;nan;101534.06;5047494;28;20040;-50
2022/04/20 00:53:07;;;;;;;10.13;8.20;;;;;;;8.70;nan;101535.81;5031913;28;20175;-50
2022/04/20 00:55:32;;;;;;;13.25;8.88;;;;;;;9.04;nan;101600.97;5030529;28;20037;-46
2022/04/20 00:57:58;;;;;;;12.13;8.88;;;;;;;8.68;nan;101543.69;5031841;28;20203;-50
2022/04/20 01:00:25;;;;;;;11.55;9.32;;;;;;;8.25;nan;101472.53;5031888;28;20492;-52
2022/04/20 01:02:50;;;;;;;10.68;8.65;;;;;;;8.88;nan;101602.03;5030601;28;20034;-51
2022/04/20 01:05:16;;;;;;;11.25;8.68;;;;;;;8.92;nan;101616.00;5031688;28;20037;-49
2022/04/20 01:07:41;;;;;;;11.88;8.50;;;;;;;8.48;nan;101540.47;5030617;28;20034;-50
2022/04/20 01:10:07;;;;;;;11.23;8.55;;;;;;;8.83;nan;101611.75;5031787;28;20036;-49
2022/04/20 01:12:32;;;;;;;11.38;8.13;;;;;;;8.46;nan;101553.59;5031848;28;20045;-53
2022/04/20 01:14:57;;;;;;;11.15;8.52;;;;;;;8.77;nan;101606.56;5033277;28;20041;-50
2022/04/20 01:17:23;;;;;;;15.65;9.57;;;;;;;8.63;nan;101582.25;5048788;28;20159;-47
2022/04/20 01:19:48;;;;;;;12.73;9.10;;;;;;;8.72;nan;101610.16;5049928;28;20051;-51
2022/04/20 01:22:13;;;;;;;11.43;8.55;;;;;;;8.28;nan;101538.09;5050955;28;20524;-49
2022/04/20 01:24:39;;;;;;;9.93;8.00;;;;;;;8.61;nan;101607.63;5051290;28;20091;-48
2022/04/20 01:27:06;;;;;;;9.10;7.95;;;;;;;8.62;nan;101609.38;5052150;28;20037;-54
2022/04/20 01:29:32;;;;;;;15.23;8.90;;;;;;;8.60;nan;101603.28;5047742;28;20434;-50
2022/04/20 01:31:58;;;;;;;11.93;8.27;;;;;;;8.24;nan;101544.22;5036611;28;20044;-48
2022/04/20 01:34:23;;;;;;;11.15;8.40;;;;;;;8.55;nan;101604.25;5050900;28;20128;-48
2022/04/20 01:36:48;;;;;;;12.07;7.82;;;;;;;8.21;nan;101548.63;5051045;28;20410;-50
2022/04/20 01:39:15;;;;;;;12.40;8.35;;;;;;;8.48;nan;101600.81;5035400;28;20033;-48
2022/04/20 01:41:40;;;;;;;12.10;8.95;;;;;;;8.42;nan;101612.25;5063197;28;20033;-53
2022/04/20 01:44:06;;;;;;;11.73;8.25;;;;;;;8.43;nan;101610.50;5037721;28;20108;-47
2022/04/20 01:46:31;;;;;;;12.27;7.47;;;;;;;8.38;nan;101596.53;5056214;28;20067;-52
2022/04/20 01:48:56;;;;;;;13.27;8.15;;;;;;;8.32;nan;101589.63;5045572;28;20032;-52
2022/04/20 01:54:06;;;;;;;12.95;8.40;;;;;;;8.03;nan;101554.94;5048455;28;20140;-52
2022/04/20 01:56:31;;;;;;;12.90;8.20;;;;;;;8.15;nan;101575.78;5026821;28;20136;-52
2022/04/20 01:58:56;;;;;;;13.30;8.27;;;;;;;8.27;nan;101616.75;5040995;28;20037;-49
2022/04/20 02:04:08;;;;;;;12.18;8.20;;;;;;;8.18;nan;101604.59;5041181;28;20098;-46
2022/04/20 02:06:33;;;;;;;11.60;8.35;;;;;;;7.97;nan;101564.66;5054573;28;20044;-47
2022/04/20 02:08:59;;;;;;;11.55;8.25;;;;;;;7.81;nan;101543.81;5050205;28;20086;-49
2022/04/20 02:11:24;;;;;;;13.35;9.00;;;;;;;7.86;nan;101554.25;5054238;28;20045;-46
2022/04/20 02:13:49;;;;;;;13.07;8.75;;;;;;;7.76;nan;101536.91;5048847;28;20057;-51
2022/04/20 02:16:15;;;;;;;9.38;8.15;;;;;;;7.76;nan;101531.66;5042108;28;20374;-50
2022/04/20 02:18:40;;;;;;;13.27;9.10;;;;;;;7.80;nan;101541.19;5042934;28;20042;-50
2022/04/20 02:21:05;;;;;;;12.23;8.40;;;;;;;7.73;nan;101529.94;5048866;28;20040;-48
2022/04/20 02:23:31;;;;;;;11.05;7.93;;;;;;;7.98;nan;101577.72;5037541;28;20110;-48
2022/04/20 02:25:56;;;;;;;12.07;7.80;;;;;;;8.05;nan;101589.03;5048915;28;20492;-47
2022/04/20 02:28:22;;;;;;;12.82;8.18;;;;;;;7.89;nan;101576.06;5042747;28;20037;-47
2022/04/20 02:30:47;;;;;;;11.63;8.30;;;;;;;7.81;nan;101558.69;5041954;28;20033;-48
2022/04/20 02:33:13;;;;;;;8.95;7.93;;;;;;;7.58;nan;101531.81;5049866;28;20029;-47
2022/04/20 02:35:39;;;;;;;11.05;7.88;;;;;;;6.91;nan;101417.19;5053102;28;20101;-49
2022/04/20 02:38:06;;;;;;;10.60;8.20;;;;;;;7.73;nan;101576.22;5046275;28;20128;-50
2022/04/20 02:40:32;;;;;;;10.32;7.90;;;;;;;7.80;nan;101591.88;5042755;28;20043;-49
2022/04/20 02:42:57;;;;;;;11.52;7.05;;;;;;;7.77;nan;101578.78;5040277;28;20033;-48
2022/04/20 02:45:22;;;;;;;8.90;7.10;;;;;;;7.77;nan;101586.66;5050368;28;20077;-49
2022/04/20 02:47:48;;;;;;;9.27;7.03;;;;;;;7.70;nan;101590.22;5036605;28;20047;-49
2022/04/20 02:50:13;;;;;;;9.70;7.20;;;;;;;7.41;nan;101518.00;5044773;28;20033;-49
2022/04/20 02:52:38;;;;;;;11.20;7.95;;;;;;;7.38;nan;101529.38;5044762;28;20036;-47
2022/04/20 02:55:04;;;;;;;10.05;7.10;;;;;;;7.70;nan;101584.13;5047900;28;20120;-47
2022/04/20 02:57:30;;;;;;;9.20;7.55;;;;;;;7.65;nan;101586.75;5053148;28;20055;-49
2022/04/20 02:59:55;;;;;;;9.75;7.40;;;;;;;7.30;nan;101532.03;5048050;28;20044;-51
2022/04/20 03:02:20;;;;;;;10.27;7.30;;;;;;;7.34;nan;101559.09;5041992;28;20025;-48
2022/04/20 03:04:45;;;;;;;7.80;6.97;;;;;;;7.39;nan;101573.00;5041625;28;20061;-53
2022/04/20 03:07:11;;;;;;;10.65;7.80;;;;;;;7.51;nan;101604.34;5049089;28;20474;-49
2022/04/20 03:09:36;;;;;;;9.70;7.10;;;;;;;7.00;nan;101529.69;5039640;28;20033;-48
2022/04/20 03:12:02;;;;;;;9.75;6.75;;;;;;;7.04;nan;101535.72;5053067;28;20071;-49
2022/04/20 03:14:27;;;;;;;9.40;7.05;;;;;;;7.36;nan;101593.97;5043560;28;20415;-47
2022/04/20 03:16:52;;;;;;;8.07;7.05;;;;;;;7.26;nan;101585.34;5046370;28;20029;-49
2022/04/20 03:19:17;;;;;;;10.82;7.20;;;;;;;6.92;nan;101536.69;5036678;28;20033;-49
2022/04/20 03:21:43;;;;;;;9.65;7.32;;;;;;;6.91;nan;101540.19;5049366;28;20044;-50
2022/04/20 03:24:09;;;;;;;8.27;7.18;;;;;;;7.24;nan;101604.53;5038665;28;20036;-49
2022/04/20 03:26:34;;;;;;;8.27;7.10;;;;;;;7.22;nan;101606.31;5042554;28;20029;-54
2022/04/20 03:28:59;;;;;;;9.25;6.93;;;;;;;7.21;nan;101615.03;5047193;28;20041;-53
2022/04/20 03:31:25;;;;;;;7.93;7.00;;;;;;;7.13;nan;101603.75;5036104;28;20524;-52
2022/04/20 03:33:50;;;;;;;10.02;7.47;;;;;;;7.15;nan;101605.47;5047491;28;20117;-49
2022/04/20 03:36:15;;;;;;;10.18;7.05;;;;;;;6.85;nan;101549.81;5040781;28;20029;-46
2022/04/20 03:38:41;;;;;;;9.48;6.97;;;;;;;7.18;nan;101610.69;5041629;28;20069;-47
2022/04/20 03:41:06;;;;;;;10.23;7.35;;;;;;;7.16;nan;101619.44;5046452;28;20063;-49
2022/04/20 03:43:32;;;;;;;10.02;7.57;;;;;;;6.81;nan;101556.81;5036680;28;20117;-48
2022/04/20 03:45:57;;;;;;;7.90;6.43;;;;;;;7.12;nan;101610.72;5047993;28;20041;-47
2022/04/20 03:48:23;;;;;;;8.00;6.45;;;;;;;6.75;nan;101562.97;5041538;28;20116;-49
2022/04/20 03:50:49;;;;;;;8.68;6.43;;;;;;;6.73;nan;101548.16;5052676;28;20440;-50
2022/04/20 03:53:14;;;;;;;9.63;7.00;;;;;;;7.11;nan;101622.09;5036578;28;20076;-48
2022/04/20 03:55:40;;;;;;;9.05;6.55;;;;;;;7.01;nan;101603.81;5049168;28;20102;-49
2022/04/20 03:58:06;;;;;;;8.40;7.00;;;;;;;6.94;nan;101608.22;5038971;28;20297;-48
2022/04/20 04:00:31;;;;;;;9.30;7.10;;;;;;;6.55;nan;101543.00;5041127;28;20037;-52
2022/04/20 04:02:57;;;;;;;10.45;6.80;;;;;;;6.65;nan;101560.41;5046058;28;20033;-50
2022/04/20 04:05:22;;;;;;;11.07;6.85;;;;;;;6.99;nan;101639.59;5035695;28;20052;-49
2022/04/20 04:07:48;;;;;;;9.50;6.57;;;;;;;6.91;nan;101631.81;5048272;28;20033;-49
2022/04/20 04:10:13;;;;;;;10.60;6.53;;;;;;;6.63;nan;101576.09;5042578;28;20040;-46
2022/04/20 04:12:39;;;;;;;10.07;6.78;;;;;;;6.51;nan;101557.84;5051561;28;20037;-49
2022/04/20 04:15:06;;;;;;;7.55;6.28;;;;;;;6.79;nan;101610.91;5036382;28;20414;-47
2022/04/20 04:17:32;;;;;;;8.50;6.40;;;;;;;6.16;nan;101508.31;5048590;28;20033;-48
2022/04/20 04:19:57;;;;;;;9.60;6.68;;;;;;;6.86;nan;101637.94;5036141;28;20087;-52
2022/04/20 04:22:22;;;;;;;7.97;6.45;;;;;;;6.81;nan;101637.94;5042247;28;20429;-50
2022/04/20 04:24:48;;;;;;;8.38;6.30;;;;;;;6.30;nan;101551.84;5043911;28;20087;-54
2022/04/20 04:27:13;;;;;;;11.23;6.90;;;;;;;6.74;nan;101637.09;5036086;28;20463;-48
2022/04/20 04:29:39;;;;;;;8.95;6.93;;;;;;;6.68;nan;101621.41;5046914;28;20033;-48
2022/04/20 04:32:05;;;;;;;8.55;6.85;;;;;;;6.40;nan;101575.31;5037847;28;20095;-51
2022/04/20 04:34:30;;;;;;;8.13;6.20;;;;;;;6.79;nan;101647.56;5051135;28;20104;-47
2022/04/20 04:36:56;;;;;;;9.75;6.72;;;;;;;6.77;nan;101646.69;5051724;28;20116;-51
2022/04/20 04:39:22;;;;;;;10.70;6.78;;;;;;;6.68;nan;101631.03;5051315;28;20059;-47
2022/04/20 04:41:50;;;;;;;8.25;6.95;;;;;;;6.65;nan;101631.03;5035801;28;20033;-51
2022/04/20 04:44:17;;;;;;;6.90;5.72;;;;;;;6.67;nan;101638.00;5043407;28;20065;-54
2022/04/20 04:49:26;;;;;;;7.47;6.05;;;;;;;6.26;nan;101571.00;5035074;28;20086;-54
2022/04/20 04:51:53;;;;;;;8.02;5.90;;;;;;;6.65;nan;101645.00;5046910;28;20546;-49
2022/04/20 04:54:18;;;;;;;7.50;5.97;;;;;;;6.65;nan;101638.88;5039641;28;20067;-46
2022/04/20 04:56:43;;;;;;;7.70;6.10;;;;;;;6.28;nan;101588.44;5039441;28;20084;-49
2022/04/20 04:59:08;;;;;;;6.70;5.97;;;;;;;6.54;nan;101630.19;5046536;28;20402;-52
2022/04/20 05:01:34;;;;;;;11.85;6.18;;;;;;;6.67;nan;101651.09;5034591;28;20107;-47
2022/04/20 05:03:59;;;;;;;9.57;5.72;;;;;;;6.50;nan;101626.72;5045491;28;20401;-51
2022/04/20 05:06:25;;;;;;;6.80;5.68;;;;;;;6.71;nan;101662.41;5040361;28;20037;-45
2022/04/20 05:08:50;;;;;;;10.20;5.53;;;;;;;6.74;nan;101670.25;5038575;28;20036;-51
2022/04/20 05:11:16;;;;;;;8.98;6.70;;;;;;;6.74;nan;101665.88;5047441;28;20428;-52
2022/04/20 05:13:42;;;;;;;8.57;5.38;;;;;;;6.36;nan;101602.38;5047878;28;20041;-47
2022/04/20 05:16:08;;;;;;;6.13;5.28;;;;;;;6.78;nan;101672.84;5037875;28;20408;-49
2022/04/20 05:18:34;;;;;;;6.25;4.50;;;;;;;6.82;nan;101685.91;5040585;28;20060;-48
2022/04/20 05:20:59;;;;;;;4.93;4.53;;;;;;;6.84;nan;101678.91;5044601;28;20032;-51
2022/04/20 05:23:25;;;;;;;6.70;5.10;;;;;;;6.83;nan;101683.28;5036438;28;20474;-48
2022/04/20 05:25:50;;;;;;;7.55;5.45;;;;;;;6.84;nan;101687.66;5049536;28;20079;-47
2022/04/20 05:28:16;;;;;;;9.93;5.88;;;;;;;6.88;nan;101685.91;5042075;28;20094;-46
2022/04/20 05:30:41;;;;;;;5.25;4.55;;;;;;;6.92;nan;101682.41;5043325;28;20072;-49
2022/04/20 05:33:06;;;;;;;7.10;5.00;;;;;;;6.60;nan;101620.56;5048028;28;20390;-49
2022/04/20 05:35:32;;;;;;;8.35;5.07;;;;;;;7.04;nan;101690.16;5037419;28;20041;-51
2022/04/20 05:43:25;;;;;;;5.93;4.80;;;;;;;7.30;nan;101702.25;5037979;28;20111;-47
2022/04/20 05:45:51;;;;;;;6.25;4.78;;;;;;;7.39;nan;101683.00;5065822;28;20045;-46
2022/04/20 05:48:17;;;;;;;9.25;4.50;;;;;;;7.24;nan;101642.06;5041642;28;20068;-51
2022/04/20 05:50:43;;;;;;;6.50;4.72;;;;;;;7.60;nan;101682.88;5040563;28;20047;-49
2022/04/20 05:53:09;;;;;;;5.18;4.38;;;;;;;7.82;nan;101696.72;5046605;28;21062;-51
2022/04/20 05:55:34;;;;;;;4.97;4.45;;;;;;;7.93;nan;101702.75;5036389;28;20538;-48
2022/04/20 05:57:59;;;;;;;4.93;4.43;;;;;;;8.04;nan;101706.13;5048050;28;20057;-49
2022/04/20 06:00:25;;;;;;;6.38;4.57;;;;;;;8.15;nan;101714.78;5034144;28;20049;-54
2022/04/20 06:02:50;;;;;;;8.32;4.57;;;;;;;8.20;nan;101694.63;5034076;28;20087;-51
2022/04/20 06:05:15;;;;;;;5.35;4.60;;;;;;;8.35;nan;101723.38;5033698;28;20547;-45
2022/04/20 06:07:41;;;;;;;5.22;4.18;;;;;;;8.40;nan;101715.47;5034578;28;20481;-47
2022/04/20 06:10:07;;;;;;;4.90;4.40;;;;;;;8.58;nan;101727.53;5034653;28;20121;-46
2022/04/20 06:12:32;;;;;;;5.25;4.60;;;;;;;8.70;nan;101719.56;5034554;28;20053;-45
2022/04/20 06:14:58;;;;;;;6.90;4.90;;;;;;;8.77;nan;101715.94;5034470;28;20041;-46
2022/04/20 06:17:23;;;;;;;5.28;4.63;;;;;;;8.80;nan;101705.41;5034805;28;20060;-49
2022/04/20 06:19:48;;;;;;;6.55;4.93;;;;;;;8.97;nan;101735.84;5034844;28;20394;-50
2022/04/20 06:22:14;;;;;;;7.80;4.53;;;;;;;8.77;nan;101666.06;5034377;28;20231;-48
2022/04/20 06:24:39;;;;;;;6.55;4.63;;;;;;;8.93;nan;101673.75;5034723;28;20121;-46
2022/04/20 06:27:05;;;;;;;5.50;4.15;;;;;;;8.99;nan;101654.41;5034714;28;20034;-49
2022/04/20 06:29:31;;;;;;;4.38;3.80;;;;;;;9.14;nan;101659.47;5034251;28;20034;-47
2022/04/20 06:31:56;;;;;;;4.50;4.10;;;;;;;9.28;nan;101678.53;5034550;28;20030;-48
2022/04/20 06:34:21;;;;;;;6.15;4.10;;;;;;;9.33;nan;101662.72;5033964;28;20053;-49
2022/04/20 06:36:47;;;;;;;5.25;4.18;;;;;;;9.77;nan;101718.13;5034403;28;20044;-47
2022/04/20 06:39:12;;;;;;;5.43;4.38;;;;;;;9.93;nan;101718.75;5034433;28;20037;-50
2022/04/20 06:41:37;;;;;;;4.80;4.28;;;;;;;9.73;nan;101677.00;5042176;28;20048;-46
2022/04/20 06:44:03;;;;;;;5.68;3.70;;;;;;;10.27;nan;101737.53;5049283;28;20033;-49
2022/04/20 06:46:28;;;;;;;6.78;4.20;;;;;;;10.33;nan;101738.31;5053728;28;20541;-50
2022/04/20 06:48:54;;;;;;;4.95;3.75;;;;;;;10.27;nan;101698.06;5069299;28;20036;-47
2022/04/20 06:51:20;;;;;;;5.28;3.63;;;;;;;10.33;nan;101714.63;5046973;28;20061;-50
2022/04/20 06:59:13;;;;;;;5.88;4.13;;;;;;;11.16;nan;101738.47;5053426;28;20036;-52
2022/04/20 07:01:39;;;;;;;7.80;4.25;;;;;;;11.53;nan;101755.25;5053242;28;20032;-49
2022/04/20 07:04:05;;;;;;;5.25;4.10;;;;;;;12.13;nan;101749.50;5039097;28;20116;-51
2022/04/20 07:06:31;;;;;;;8.63;3.80;;;;;;;12.75;nan;101761.09;5049021;28;20063;-50
2022/04/20 07:08:56;;;;;;;3.53;3.20;;;;;;;13.42;nan;101763.63;5036906;28;20061;-47
2022/04/20 07:11:22;;;;;;;3.58;3.25;;;;;;;14.03;nan;101761.75;5046616;28;20131;-46
2022/04/20 07:13:47;;;;;;;4.50;3.67;;;;;;;14.44;nan;101700.38;5042309;28;20108;-48
2022/04/20 07:16:13;;;;;;;3.83;3.53;;;;;;;14.80;nan;101719.38;5039526;28;20052;-50
2022/04/20 07:18:38;;;;;;;4.28;3.50;;;;;;;15.35;nan;101758.03;5031478;28;20139;-48
2022/04/20 07:21:04;;;;;;;4.57;3.30;;;;;;;15.62;nan;101759.63;5037559;28;20039;-48
2022/04/20 07:23:29;;;;;;;5.22;3.50;;;;;;;16.19;nan;101737.00;5045491;28;20083;-51
2022/04/20 07:25:54;;;;;;;6.97;3.78;;;;;;;16.71;nan;101770.25;5044603;28;20498;-49
2022/04/20 07:28:20;;;;;;;4.25;3.72;;;;;;;16.38;nan;101767.19;5038166;28;20517;-48
2022/04/20 07:30:45;;;;;;;6.07;3.80;;;;;;;;;;5051239;28;20560;-51
2022/04/20 07:33:13;;;;;;;4.88;3.47;;;;;;;16.67;nan;101773.94;5052668;28;20068;-51
2022/04/20 07:35:38;;;;;;;4.07;3.67;;;;;;;16.98;nan;101778.81;5050695;28;20071;-47
2022/04/20 07:38:04;;;;;;;5.00;3.13;;;;;;;17.31;nan;101732.94;5052532;28;20539;-48
2022/04/20 07:40:31;;;;;;;4.75;3.55;;;;;;;17.69;nan;101725.84;5052511;28;20066;-51
2022/04/20 07:42:56;;;;;;;4.70;3.40;;;;;;;18.12;nan;101761.94;5035841;28;20451;-45
2022/04/20 07:45:26;;;;;;;4.47;2.80;;;;;;;18.35;nan;101727.00;5045777;28;20033;-53
2022/04/20 07:47:53;;;;;;;3.60;3.30;;;;;;;18.42;nan;101772.84;5039094;28;20040;-47
2022/04/20 07:50:19;;;;;;;3.63;3.33;;;;;;;18.20;nan;101717.13;5034668;28;20136;-47
2022/04/20 07:52:50;;;;;;;4.57;3.33;;;;;;;18.10;nan;101715.84;5046237;28;20041;-44
2022/04/20 07:55:17;;;;;;;;;;;;;;;18.13;nan;101768.97;5052633;28;20035;-51
2022/04/20 07:57:43;;;;;;;6.28;3.33;;;;;;;18.44;nan;101760.34;5041181;28;20301;-52
2022/04/20 08:00:09;;;;;;;5.07;3.85;;;;;;;18.46;nan;101769.97;5026193;28;20062;-46
2022/04/20 08:02:34;;;;;;;3.40;3.10;;;;;;;18.29;nan;101772.63;5034405;28;20040;-49
2022/04/20 08:05:00;;;;;;;3.50;3.20;;;;;;;18.10;nan;101721.16;5046083;28;20156;-48
2022/04/20 08:07:26;;;;;;;4.15;3.67;;;;;;;18.52;nan;101777.69;5037742;28;20102;-51
2022/04/20 08:09:52;;;;;;;10.13;3.90;;;;;;;18.07;nan;101720.47;5039310;28;20175;-48
2022/04/20 08:12:17;;;;;;;4.13;3.65;;;;;;;18.54;nan;101785.59;5045217;28;20143;-48
2022/04/20 08:14:42;;;;;;;3.53;3.15;;;;;;;18.56;nan;101774.88;5032532;28;20037;-47
2022/04/20 08:17:07;;;;;;;7.50;3.78;;;;;;;18.96;nan;101778.09;5046076;28;20160;-50
2022/04/20 08:19:39;;;;;;;6.43;4.05;;;;;;;19.45;99.00;101789.72;5123202;27;20370;-46
2022/04/20 08:22:05;;;;;;;4.22;3.70;;;;;;;18.90;95.97;101735.72;5092192;28;20067;-49
2022/04/20 08:24:30;;;;;;;3.70;3.40;;;;;;;19.34;97.32;101783.19;5086356;28;20121;-47
2022/04/20 08:26:56;;;;;;;4.85;3.75;;;;;;;19.43;96.16;101737.34;5087093;28;20083;-47
2022/04/20 08:29:21;;;;;;;5.78;3.65;;;;;;;19.29;93.54;101727.41;5085633;28;20329;-45
2022/04/20 08:31:47;;;;;;;4.13;3.50;;;;;;;19.72;92.71;101782.00;5086703;28;20042;-47
2022/04/20 08:34:12;;;;;;;6.30;3.78;;;;;;;19.71;96.04;101785.59;5087537;28;20043;-48
2022/04/20 08:36:37;;;;;;;4.70;3.30;;;;;;;19.67;90.79;101790.25;5085017;28;20387;-48
2022/04/20 08:39:03;;;;;;;4.82;3.33;;;;;;;20.00;88.28;101789.31;5087561;28;20036;-50
2022/04/20 08:41:28;;;;;;;4.10;3.15;;;;;;;20.11;87.97;101753.00;5068473;28;20131;-49
2022/04/20 08:43:56;;;;;;;6.82;3.47;;;;;;;20.36;87.47;101787.25;5086659;28;20044;-55
2022/04/20 08:46:23;;;;;;;4.50;3.33;;;;;;;20.33;87.93;101733.97;5085929;28;20173;-48
2022/04/20 08:48:49;;;;;;;3.58;3.28;;;;;;;20.88;84.17;101785.03;5086377;28;20039;-53
2022/04/20 08:51:15;;;;;;;3.58;3.25;;;;;;;21.18;83.34;101793.03;5087515;28;20039;-45
2022/04/20 08:53:41;;;;;;;3.25;2.92;;;;;;;21.00;77.51;101772.72;5087463;28;20035;-48
2022/04/20 08:58:50;;;;;;;3.30;2.70;;;;;;;21.10;79.52;101773.94;5086566;28;20514;-51
2022/04/20 09:01:17;;;;;;;3.05;2.85;;;;;;;21.82;80.24;101780.00;5088553;28;20440;-49
2022/04/20 09:03:44;;;;;;;3.45;2.50;;;;;;;22.01;74.46;101776.19;5086021;28;20193;-51
2022/04/20 09:06:09;;;;;;;2.58;2.25;;;;;;;21.63;76.03;101757.16;5087355;28;20471;-48
2022/04/20 09:08:37;;;;;;;2.60;2.40;;;;;;;21.59;77.85;101720.81;5084612;28;20028;-51
2022/04/20 09:11:03;;;;;;;2.88;2.00;;;;;;;21.81;73.90;101734.53;5098358;28;20054;-48
2022/04/20 09:13:42;;;;;;;3.50;3.00;;;;;;;21.97;72.82;101727.25;5087287;28;20475;-46
2022/04/20 09:16:09;;;;;;;2.88;2.50;;;;;;;21.92;68.00;101715.13;5087549;28;20390;-49
2022/04/20 09:18:36;;;;;;;3.65;2.22;;;;;;;21.76;71.08;101715.22;5085217;28;20135;-46
2022/04/20 09:21:12;;;;;;;2.92;2.47;;;;;;;21.96;70.11;101714.81;5069138;28;20386;-47
2022/04/20 09:23:38;;;;;;;3.30;2.72;;;;;;;21.79;76.37;101723.06;5085384;28;20040;-53
2022/04/20 09:26:09;;;;;;;4.55;2.10;;;;;;;22.17;75.33;101768.84;5085751;28;20074;-49
2022/04/20 09:28:37;;;;;;;3.70;2.53;;;;;;;22.62;66.83;101759.53;5086721;28;20368;-50
2022/04/20 09:31:03;;;;;;;2.58;2.13;;;;;;;22.73;64.97;101765.06;5072426;28;20050;-50
2022/04/20 09:33:42;;;;;;;3.03;2.22;;;;;;;22.57;65.58;101719.59;5073696;28;20074;-51
2022/04/20 09:36:08;;;;;;;2.15;1.95;;;;;;;22.68;57.36;101768.03;5073495;28;20063;-48
2022/04/20 09:38:37;;;;;;;5.00;2.15;;;;;;;22.92;62.16;101765.50;5072960;28;20040;-49
2022/04/20 09:41:09;;;;;;;2.50;2.25;;;;;;;22.53;63.73;101734.19;5072267;28;20071;-48
2022/04/20 09:43:35;;;;;;;3.85;2.22;;;;;;;23.12;67.13;101761.41;5072360;28;20028;-49
2022/04/20 09:46:04;;;;;;;2.65;2.42;;;;;;;22.93;55.99;101760.03;5073125;28;20146;-49
2022/04/20 09:51:20;;;;;;;2.45;1.98;;;;;;;23.14;57.12;101751.44;5072976;28;20098;-47
2022/04/20 09:53:46;;;;;;;2.13;1.95;;;;;;;22.91;55.18;101759.25;5072721;28;20037;-47
2022/04/20 09:56:20;;;;;;;3.03;1.80;;;;;;;23.02;52.17;101755.84;5071761;28;20111;-49
2022/04/20 09:58:46;;;;;;;4.75;1.70;;;;;;;22.96;63.39;101714.19;5073257;28;20075;-49
2022/04/20 10:01:31;;;;;;;1.58;1.48;;;;;;;23.27;54.83;101745.09;5086331;28;20483;-48
2022/04/20 10:03:58;;;;;;;3.30;2.05;;;;;;;23.06;52.42;101713.53;5073471;28;20028;-51
2022/04/20 10:06:24;;;;;;;4.95;2.22;;;;;;;23.53;58.39;101746.81;5071605;28;20043;-48
2022/04/20 10:08:50;;;;;;;2.58;1.80;;;;;;;23.82;57.04;101744.69;5073156;28;20442;-47
2022/04/20 10:11:16;;;;;;;2.58;2.05;;;;;;;23.64;49.84;101711.09;5072598;28;20459;-51
2022/04/20 10:13:41;;;;;;;2.10;1.90;;;;;;;23.55;48.70;101737.78;5072020;28;20032;-51
2022/04/20 10:16:11;;;;;;;2.63;2.00;;;;;;;23.40;56.86;101727.16;5071011;28;20105;-49
2022/04/20 10:18:38;;;;;;;2.65;2.45;;;;;;;23.73;54.26;101731.06;5061578;28;20057;-47
2022/04/20 10:21:06;;;;;;;2.47;2.00;;;;;;;23.89;52.14;101689.50;5071223;28;20078;-48
2022/04/20 10:23:32;;;;;;;2.78;2.03;;;;;;;24.36;50.19;101728.97;5081648;28;20040;-47
2022/04/20 10:25:59;;;;;;;3.08;2.08;;;;;;;24.43;48.29;101735.59;5068613;28;20037;-47
2022/04/20 10:29:01;;;;;;;3.08;2.25;;;;;;;23.97;53.60;101735.47;5071027;28;20032;-50
2022/04/20 10:31:42;;;;;;;3.05;1.98;;;;;;;24.03;46.91;101737.72;5071335;28;20098;-48
2022/04/20 10:34:12;;;;;;;2.95;2.53;;;;;;;24.05;52.38;101702.66;5071816;28;20341;-52
2022/04/20 10:36:37;;;;;;;1.98;1.88;;;;;;;24.15;47.84;101682.19;5054035;28;20502;-50
2022/04/20 10:39:19;;;;;;;2.40;1.70;;;;;;;24.29;48.41;101721.47;5072536;28;20110;-47
2022/04/20 10:42:11;;;;;;;6.28;2.00;;;;;;;24.30;48.15;101723.19;5071499;28;20070;-46
2022/04/20 10:44:56;;;;;;;2.45;1.75;;;;;;;24.13;45.72;101683.28;5072068;28;20028;-47
2022/04/20 10:47:27;;;;;;;2.33;2.00;;;;;;;25.26;50.80;101717.44;5071965;28;20523;-51
2022/04/20 10:49:55;;;;;;;2.40;2.20;;;;;;;25.36;41.21;101672.59;5070657;28;20089;-48
2022/04/20 10:52:24;;;;;;;4.10;1.95;;;;;;;25.62;44.12;101716.34;5054176;28;20381;-50
2022/04/20 10:54:53;;;;;;;2.10;1.63;;;;;;;24.74;44.84;101668.63;5070277;28;20392;-48
2022/04/20 10:57:32;;;;;;;2.83;1.98;;;;;;;25.34;42.26;101700.63;5070554;28;20032;-52
2022/04/20 11:00:16;;;;;;;4.28;2.22;;;;;;;25.32;41.52;101703.47;5070622;28;20036;-47
2022/04/20 11:02:48;;;;;;;4.32;2.30;;;;;;;24.82;41.32;101690.44;5072327;28;20428;-48
2022/04/20 11:05:15;;;;;;;3.70;2.30;;;;;;;24.60;47.07;101692.13;5071825;28;20032;-50
2022/04/20 11:08:00;;;;;;;1.90;1.75;;;;;;;25.87;48.60;101697.13;5071742;28;20040;-51
2022/04/20 11:10:25;;;;;;;5.80;2.92;;;;;;;;;;5071774;28;20039;-52
2022/04/20 11:18:38;;;;;;;2.72;2.30;;;;;;;;;;5070721;28;20056;-49
2022/04/20 11:21:03;;;;;;;3.30;2.20;;;;;;;;;;5071070;28;20059;-49
2022/04/20 11:23:47;;;;;;;3.27;2.53;;;;;;;;;;5071457;28;20456;-55
2022/04/20 11:26:14;;;;;;;4.70;2.25;;;;;;;;;;5071678;28;20030;-50
2022/04/20 11:28:41;;;;;;;4.05;2.55;;;;;;;;;;5071223;28;20036;-50
2022/04/20 11:31:06;;;;;;;3.70;2.25;;;;;;;;;;5071168;28;20028;-49
2022/04/20 11:33:32;;;;;;;3.03;2.70;;;;;;;;;;5069614;28;20082;-55
2022/04/20 11:35:58;;;;;;;2.30;2.10;;;;;;;;;;5071929;28;20040;-50
2022/04/20 11:38:42;;;;;;;2.90;2.03;;;;;;;;;;5071000;28;20032;-52
2022/04/20 11:41:11;;;;;;;2.22;1.90;;;;;;;;;;5069060;28;20025;-51
2022/04/20 11:43:39;;;;;;;4.05;2.70;;;;;;;;;;5069785;28;20032;-53
2022/04/20 11:46:05;;;;;;;2.50;2.10;;;;;;;;;;5069728;28;20043;-47
2022/04/20 11:48:32;;;;;;;2.65;2.45;;;;;;;;;;5068788;28;20028;-48
2022/04/20 11:51:01;;;;;;;2.88;2.58;;;;;;;;;;5071207;28;20412;-46
2022/04/20 11:53:38;;;;;;;2.67;2.47;;;;;;;27.19;nan;101659.59;5070922;28;20028;-47
2022/04/20 11:56:05;;;;;;;3.22;2.70;;;;;;;26.54;nan;101648.28;5069804;28;20494;-49
2022/04/20 11:58:31;;;;;;;3.17;2.03;;;;;;;25.46;nan;101606.16;5070301;28;20067;-51
2022/04/20 12:01:07;;;;;;;3.42;2.08;;;;;;;26.38;nan;101637.09;5070681;28;20319;-49
2022/04/20 12:03:37;;;;;;;2.38;2.17;;;;;;;24.87;nan;101600.25;5070456;28;20485;-50
2022/04/20 12:06:07;;;;;;;7.82;2.30;;;;;;;25.95;nan;101627.22;5071149;28;20560;-47
2022/04/20 12:08:34;;;;;;;2.50;2.23;;;;;;;25.78;nan;101624.22;5069806;28;20029;-54
2022/04/20 12:11:10;;;;;;;2.58;2.30;;;;;;;26.01;nan;101596.16;5069741;28;20032;-46
2022/04/20 12:13:36;;;;;;;3.83;2.83;;;;;;;26.22;nan;101616.81;5069644;28;20368;-49
2022/04/20 12:16:05;;;;;;;4.38;2.35;;;;;;;26.07;nan;101619.91;5070159;28;20040;-48
2022/04/20 12:18:36;;;;;;;2.53;2.00;;;;;;;26.53;nan;101623.09;5067992;28;20068;-50